Time;durP1;ratioP1;P1;durP2;ratioP2;P2;SDS_P1;SDS_P2;PMS_P1;PMS_P2;Temp;Humidity;BMP_temperature;BMP_pressure;BME280_temperature;BME280_humidity;BME280_pressure;Samples;Min_cycle;Max_cycle;Signal;HPM_P1;HPM_P2
2023/04/17 00:01:11;;;;;;;21.50;16.93;;;14.60;84.70;;;;;;5069658;28;20470;-72
2023/04/17 00:03:39;;;;;;;19.07;15.67;;;14.60;84.60;;;;;;5064620;28;20515;-72
2023/04/17 00:06:06;;;;;;;20.53;15.20;;;14.60;84.60;;;;;;5051154;28;20450;-73
2023/04/17 00:08:34;;;;;;;20.87;17.03;;;14.60;84.50;;;;;;5053172;28;20486;-72
2023/04/17 00:11:01;;;;;;;20.70;17.00;;;14.60;84.30;;;;;;5057540;28;20455;-72
2023/04/17 00:13:29;;;;;;;21.60;17.67;;;14.60;84.10;;;;;;5060678;28;20444;-72
2023/04/17 00:15:56;;;;;;;19.57;16.17;;;14.60;84.10;;;;;;5070513;28;20561;-73
2023/04/17 00:18:23;;;;;;;20.67;17.37;;;14.60;84.10;;;;;;5070567;28;20542;-73
2023/04/17 00:20:52;;;;;;;20.07;16.60;;;14.50;83.90;;;;;;5070627;28;20907;-73
2023/04/17 00:23:19;;;;;;;20.17;16.73;;;14.50;83.90;;;;;;5062499;28;20498;-72
2023/04/17 00:25:46;;;;;;;19.83;15.80;;;14.50;83.90;;;;;;5067727;28;20555;-73
2023/04/17 00:28:13;;;;;;;19.47;15.50;;;14.50;83.80;;;;;;5062523;28;20894;-73
2023/04/17 00:30:40;;;;;;;21.27;14.73;;;14.50;83.70;;;;;;5057860;28;20955;-73
2023/04/17 00:33:08;;;;;;;19.43;17.27;;;14.50;83.70;;;;;;5055660;28;20444;-73
2023/04/17 00:35:35;;;;;;;19.53;15.63;;;14.50;83.70;;;;;;5060370;28;20480;-74
2023/04/17 00:38:03;;;;;;;18.13;15.47;;;14.50;83.60;;;;;;5056185;28;20469;-73
2023/04/17 00:40:34;;;;;;;20.47;16.53;;;14.40;83.30;;;;;;5062491;28;20454;-73
2023/04/17 00:43:01;;;;;;;18.73;15.83;;;14.40;83.30;;;;;;5073777;28;20495;-73
2023/04/17 00:45:28;;;;;;;18.00;14.67;;;14.40;83.20;;;;;;5073301;28;20461;-73
2023/04/17 00:47:56;;;;;;;20.47;15.67;;;14.40;83.30;;;;;;5027461;28;20523;-73
2023/04/17 00:50:24;;;;;;;18.73;15.50;;;14.40;83.40;;;;;;5065380;28;20478;-73
2023/04/17 00:52:51;;;;;;;18.00;14.70;;;14.40;83.20;;;;;;5053965;28;20448;-73
2023/04/17 00:55:20;;;;;;;21.10;15.60;;;14.40;83.20;;;;;;5057818;28;20452;-72
2023/04/17 00:57:48;;;;;;;17.00;14.93;;;14.40;83.10;;;;;;5039302;28;20532;-73
2023/04/17 01:00:16;;;;;;;22.07;16.20;;;14.40;83.10;;;;;;5059541;28;20455;-73
2023/04/17 01:02:44;;;;;;;18.67;15.37;;;14.40;83.10;;;;;;5053841;28;20495;-72
2023/04/17 01:05:11;;;;;;;19.00;16.30;;;14.40;82.90;;;;;;5053782;28;20452;-74
2023/04/17 01:07:40;;;;;;;17.80;15.60;;;14.40;82.90;;;;;;5055259;28;20822;-73
2023/04/17 01:10:08;;;;;;;17.70;15.23;;;14.40;82.90;;;;;;5061161;28;20483;-72
2023/04/17 01:12:36;;;;;;;18.43;14.80;;;14.40;82.90;;;;;;5054172;28;20950;-74
2023/04/17 01:15:04;;;;;;;17.57;14.40;;;14.30;82.90;;;;;;5053520;28;20463;-73
2023/04/17 01:17:31;;;;;;;19.37;15.10;;;14.30;82.90;;;;;;5058571;28;20491;-73
2023/04/17 01:19:58;;;;;;;16.90;14.53;;;14.30;83.00;;;;;;5068277;28;20458;-74
2023/04/17 01:22:25;;;;;;;18.30;15.07;;;14.30;83.00;;;;;;5070303;28;20479;-73
2023/04/17 01:24:53;;;;;;;17.10;15.30;;;14.40;83.10;;;;;;5072833;28;20475;-74
2023/04/17 01:27:21;;;;;;;20.57;15.53;;;14.30;83.00;;;;;;5053297;28;20455;-74
2023/04/17 01:29:48;;;;;;;18.23;14.90;;;14.30;82.90;;;;;;5053225;28;20456;-73
2023/04/17 01:32:15;;;;;;;16.13;14.33;;;14.30;82.90;;;;;;5052436;28;20454;-73
2023/04/17 01:34:41;;;;;;;18.10;15.93;;;14.30;83.00;;;;;;5052743;28;20555;-74
2023/04/17 01:37:10;;;;;;;17.73;14.77;;;14.30;83.10;;;;;;5052697;28;20458;-74
2023/04/17 01:39:37;;;;;;;20.20;15.87;;;14.30;83.10;;;;;;5053230;28;20551;-74
2023/04/17 01:42:05;;;;;;;18.47;14.03;;;14.30;83.40;;;;;;5053522;28;20463;-72
2023/04/17 01:44:36;;;;;;;20.43;15.30;;;14.20;83.00;;;;;;5064599;28;20484;-73
2023/04/17 01:47:03;;;;;;;17.93;14.23;;;14.20;82.90;;;;;;5052832;28;20467;-74
2023/04/17 01:49:30;;;;;;;19.03;15.90;;;14.30;83.00;;;;;;5063791;28;20462;-74
2023/04/17 01:51:57;;;;;;;17.73;15.47;;;14.20;83.00;;;;;;5073037;28;20897;-73
2023/04/17 01:54:24;;;;;;;18.57;15.27;;;14.20;83.00;;;;;;5072948;28;20794;-73
2023/04/17 01:56:51;;;;;;;17.00;14.30;;;14.20;83.10;;;;;;5073000;28;20535;-73
2023/04/17 01:59:20;;;;;;;18.17;14.63;;;14.20;83.20;;;;;;5052802;28;21051;-73
2023/04/17 02:01:47;;;;;;;18.97;14.83;;;14.20;83.20;;;;;;5064962;28;20443;-74
2023/04/17 02:04:14;;;;;;;17.30;14.33;;;14.20;83.10;;;;;;5072474;28;20829;-71
2023/04/17 02:06:42;;;;;;;16.10;13.90;;;14.20;83.00;;;;;;5073175;28;20447;-72
2023/04/17 02:09:09;;;;;;;16.33;13.80;;;14.20;82.90;;;;;;5071990;28;20937;-74
2023/04/17 02:11:36;;;;;;;15.10;13.40;;;14.20;82.80;;;;;;5071398;28;20478;-73
2023/04/17 02:14:02;;;;;;;17.93;14.37;;;14.20;82.70;;;;;;5071255;28;20447;-72
2023/04/17 02:16:31;;;;;;;19.07;14.03;;;14.20;82.70;;;;;;5071952;28;20462;-73
2023/04/17 02:18:58;;;;;;;15.03;12.37;;;14.10;82.70;;;;;;5062835;28;20444;-73
2023/04/17 02:21:26;;;;;;;19.03;14.13;;;14.10;82.60;;;;;;5052967;28;20448;-73
2023/04/17 02:23:53;;;;;;;15.57;12.60;;;14.20;82.70;;;;;;5042583;28;20488;-74
2023/04/17 02:26:20;;;;;;;16.67;13.07;;;14.20;82.60;;;;;;5061753;28;20471;-73
2023/04/17 02:28:47;;;;;;;18.33;14.23;;;14.10;82.60;;;;;;5071370;28;20455;-74
2023/04/17 02:31:16;;;;;;;16.30;14.40;;;14.10;82.50;;;;;;5070164;28;20447;-73
2023/04/17 02:33:44;;;;;;;16.23;14.10;;;14.10;82.60;;;;;;5052664;28;20449;-74
2023/04/17 02:36:11;;;;;;;16.07;14.07;;;14.10;82.60;;;;;;5059805;28;20479;-74
2023/04/17 02:38:38;;;;;;;16.67;12.93;;;14.10;82.60;;;;;;5071917;28;20452;-74
2023/04/17 02:41:05;;;;;;;17.33;13.37;;;14.10;82.60;;;;;;5074251;28;20455;-75
2023/04/17 02:43:32;;;;;;;17.33;13.87;;;14.10;82.70;;;;;;5069446;28;20506;-75
2023/04/17 02:45:58;;;;;;;14.07;12.47;;;14.10;82.70;;;;;;5052861;28;20964;-74
2023/04/17 02:48:28;;;;;;;16.83;14.27;;;14.10;82.70;;;;;;5075256;28;20447;-75
2023/04/17 02:50:56;;;;;;;15.93;13.67;;;14.00;82.60;;;;;;5059888;28;20543;-75
2023/04/17 02:53:23;;;;;;;17.13;14.33;;;14.10;82.70;;;;;;5064587;28;20447;-74
2023/04/17 02:55:49;;;;;;;17.37;14.40;;;14.10;82.60;;;;;;5056113;28;20451;-74
2023/04/17 02:58:16;;;;;;;16.43;13.53;;;14.00;82.70;;;;;;5035115;28;20468;-74
2023/04/17 03:00:43;;;;;;;15.93;13.67;;;14.00;82.60;;;;;;5067459;28;20534;-74
2023/04/17 03:03:10;;;;;;;15.17;13.20;;;14.10;82.70;;;;;;5052223;28;20494;-75
2023/04/17 03:05:37;;;;;;;17.47;14.97;;;14.00;82.70;;;;;;5056217;28;20979;-75
2023/04/17 03:08:06;;;;;;;16.87;13.00;;;14.10;82.80;;;;;;5058045;28;20542;-74
2023/04/17 03:10:33;;;;;;;16.07;14.20;;;14.00;82.70;;;;;;5060601;28;20459;-75
2023/04/17 03:13:02;;;;;;;17.53;13.87;;;14.00;82.70;;;;;;5064033;28;20518;-74
2023/04/17 03:15:29;;;;;;;18.40;14.43;;;14.00;82.60;;;;;;5069845;28;20541;-73
2023/04/17 03:17:56;;;;;;;15.83;13.90;;;14.00;82.60;;;;;;5071425;28;20784;-73
2023/04/17 03:20:23;;;;;;;18.03;13.60;;;14.00;82.60;;;;;;5051922;28;20920;-73
2023/04/17 03:22:49;;;;;;;16.60;13.93;;;14.00;82.60;;;;;;5059609;28;20481;-73
2023/04/17 03:25:18;;;;;;;18.63;14.30;;;14.00;82.50;;;;;;5054519;28;20458;-73
2023/04/17 03:27:45;;;;;;;16.63;14.43;;;14.00;82.50;;;;;;5070628;28;20455;-73
2023/04/17 03:30:12;;;;;;;16.67;14.30;;;14.00;82.50;;;;;;5052986;28;20539;-74
2023/04/17 03:32:39;;;;;;;16.57;13.90;;;14.00;82.50;;;;;;5054069;28;20445;-74
2023/04/17 03:35:06;;;;;;;16.30;13.53;;;14.00;82.40;;;;;;5062866;28;20448;-74
2023/04/17 03:37:33;;;;;;;15.43;13.10;;;14.00;82.50;;;;;;5051543;28;20444;-73
2023/04/17 03:40:00;;;;;;;15.30;13.13;;;13.90;82.40;;;;;;5058957;28;20479;-72
2023/04/17 03:42:28;;;;;;;15.57;13.60;;;13.90;82.50;;;;;;5061296;28;20452;-73
2023/04/17 03:44:55;;;;;;;15.83;13.20;;;14.00;82.70;;;;;;5065975;28;20447;-73
2023/04/17 03:47:23;;;;;;;14.40;12.87;;;13.90;82.50;;;;;;5039527;28;20451;-73
2023/04/17 03:49:49;;;;;;;14.93;13.23;;;13.90;82.60;;;;;;5051718;28;20534;-73
2023/04/17 03:52:16;;;;;;;16.47;13.83;;;13.90;82.60;;;;;;5057798;28;21157;-73
2023/04/17 03:54:43;;;;;;;14.43;12.93;;;13.90;82.70;;;;;;5062622;28;20444;-73
2023/04/17 03:57:10;;;;;;;16.10;13.17;;;13.90;82.70;;;;;;5055509;28;20444;-74
2023/04/17 03:59:38;;;;;;;14.83;13.07;;;13.90;82.80;;;;;;5066695;28;20555;-74
2023/04/17 04:02:05;;;;;;;16.50;14.07;;;13.90;82.80;;;;;;5055615;28;20448;-78
2023/04/17 04:04:32;;;;;;;16.20;13.87;;;13.90;82.90;;;;;;5081221;28;20482;-74
2023/04/17 04:07:00;;;;;;;17.37;13.87;;;13.90;82.90;;;;;;5082825;28;20447;-73
2023/04/17 04:09:27;;;;;;;14.90;12.93;;;13.90;82.90;;;;;;5095636;28;20459;-75
2023/04/17 04:11:54;;;;;;;16.20;13.77;;;13.90;82.90;;;;;;5096414;28;20518;-74
2023/04/17 04:14:21;;;;;;;16.97;13.53;;;13.90;82.90;;;;;;5079733;28;20456;-75
2023/04/17 04:16:49;;;;;;;17.03;12.90;;;13.90;83.00;;;;;;5039861;28;20446;-73
2023/04/17 04:19:16;;;;;;;16.37;14.00;;;13.90;83.00;;;;;;5063354;28;20546;-72
2023/04/17 04:21:44;;;;;;;16.43;13.13;;;13.90;82.90;;;;;;5055286;28;20452;-73
2023/04/17 04:24:12;;;;;;;16.10;13.53;;;13.90;82.90;;;;;;5067226;28;20969;-75
2023/04/17 04:26:40;;;;;;;15.93;13.90;;;13.90;82.90;;;;;;5070885;28;20479;-73
2023/04/17 04:29:07;;;;;;;18.10;13.83;;;13.90;82.90;;;;;;5062158;28;20462;-73
2023/04/17 04:31:34;;;;;;;17.43;13.60;;;13.90;82.80;;;;;;5070053;28;20443;-73
2023/04/17 04:34:03;;;;;;;16.47;12.83;;;13.90;82.80;;;;;;5071560;28;20471;-73
2023/04/17 04:36:29;;;;;;;17.07;13.33;;;13.90;82.80;;;;;;5054200;28;20459;-72
2023/04/17 04:38:59;;;;;;;17.27;13.30;;;13.90;82.80;;;;;;5054113;28;21061;-73
2023/04/17 04:41:28;;;;;;;16.57;13.43;;;13.90;82.80;;;;;;5054242;28;20542;-73
2023/04/17 04:43:55;;;;;;;14.67;12.50;;;13.90;82.90;;;;;;5052621;28;20484;-73
2023/04/17 04:46:22;;;;;;;15.73;13.50;;;13.90;83.00;;;;;;5064807;28;20467;-73
2023/04/17 04:48:49;;;;;;;14.63;12.93;;;13.90;83.00;;;;;;5062835;28;20815;-73
2023/04/17 04:51:18;;;;;;;14.97;13.13;;;13.90;83.00;;;;;;5055061;28;20538;-73
2023/04/17 04:53:45;;;;;;;14.83;12.17;;;13.90;83.20;;;;;;5059731;28;20471;-71
2023/04/17 04:56:13;;;;;;;15.33;12.43;;;13.90;83.20;;;;;;5071836;28;20463;-74
2023/04/17 04:58:40;;;;;;;15.23;13.33;;;13.90;83.10;;;;;;5066123;28;20994;-74
2023/04/17 05:01:07;;;;;;;14.47;12.97;;;13.90;83.00;;;;;;5059125;28;21159;-74
2023/04/17 05:03:33;;;;;;;17.07;13.70;;;13.90;83.00;;;;;;5053930;28;20480;-74
2023/04/17 05:06:00;;;;;;;16.70;14.00;;;13.90;82.90;;;;;;5066036;28;20810;-73
2023/04/17 05:08:29;;;;;;;16.70;14.13;;;13.90;82.90;;;;;;5073450;28;20447;-74
2023/04/17 05:10:56;;;;;;;14.80;12.67;;;13.90;82.90;;;;;;5054638;28;20449;-73
2023/04/17 05:13:24;;;;;;;13.27;11.83;;;13.90;82.80;;;;;;5060959;28;20524;-73
2023/04/17 05:15:51;;;;;;;15.53;12.90;;;13.90;82.90;;;;;;5066311;28;20476;-73
2023/04/17 05:18:18;;;;;;;14.00;12.47;;;13.90;83.00;;;;;;5061542;28;20509;-73
2023/04/17 05:20:45;;;;;;;14.90;12.37;;;13.90;83.00;;;;;;5062494;28;20562;-73
2023/04/17 05:23:13;;;;;;;14.83;12.97;;;13.90;83.00;;;;;;5070951;28;20454;-73
2023/04/17 05:25:41;;;;;;;14.87;13.10;;;13.90;83.00;;;;;;5071619;28;21039;-74
2023/04/17 05:28:08;;;;;;;15.37;12.47;;;13.90;83.10;;;;;;5060580;28;21000;-75
2023/04/17 05:30:35;;;;;;;18.43;13.90;;;13.90;83.00;;;;;;5053217;28;20444;-74
2023/04/17 05:33:02;;;;;;;17.77;14.00;;;13.90;82.90;;;;;;5053572;28;20928;-75
2023/04/17 05:35:29;;;;;;;15.57;13.77;;;14.00;82.90;;;;;;5061409;28;20582;-73
2023/04/17 05:37:56;;;;;;;14.90;13.03;;;14.00;83.00;;;;;;5073467;28;20489;-73
2023/04/17 05:40:23;;;;;;;15.03;13.00;;;14.00;83.00;;;;;;5057306;28;20628;-73
2023/04/17 05:42:51;;;;;;;17.20;13.47;;;13.90;82.80;;;;;;5064298;28;20451;-73
2023/04/17 05:45:18;;;;;;;15.07;12.33;;;14.00;82.90;;;;;;5061706;28;21352;-72
2023/04/17 05:47:45;;;;;;;17.57;13.17;;;14.00;82.80;;;;;;5052993;28;20536;-73
2023/04/17 05:50:12;;;;;;;16.00;13.23;;;14.00;82.80;;;;;;5054151;28;20456;-74
2023/04/17 05:52:38;;;;;;;15.37;12.50;;;14.00;82.90;;;;;;5065073;28;20543;-74
2023/04/17 05:55:06;;;;;;;16.47;13.40;;;14.00;83.00;;;;;;5054394;28;20468;-71
2023/04/17 05:57:33;;;;;;;17.27;12.37;;;14.00;83.00;;;;;;5066283;28;20524;-71
2023/04/17 06:00:09;;;;;;;14.73;12.50;;;14.00;82.90;;;;;;5065637;28;20473;-72
2023/04/17 06:02:36;;;;;;;15.30;12.93;;;14.00;82.90;;;;;;5052701;28;20965;-71
2023/04/17 06:05:05;;;;;;;15.80;12.77;;;14.10;83.00;;;;;;5056016;28;20514;-71
2023/04/17 06:07:33;;;;;;;17.13;13.40;;;14.00;83.10;;;;;;5053480;28;20474;-72
2023/04/17 06:10:00;;;;;;;13.77;12.23;;;14.10;83.20;;;;;;5055248;28;20444;-72
2023/04/17 06:12:27;;;;;;;14.63;12.47;;;14.10;83.10;;;;;;5054632;28;20518;-72
2023/04/17 06:14:55;;;;;;;16.20;13.27;;;14.10;83.10;;;;;;5063141;28;20511;-72
2023/04/17 06:17:23;;;;;;;16.17;13.37;;;14.10;83.10;;;;;;5062096;28;20529;-74
2023/04/17 06:19:50;;;;;;;15.90;14.13;;;14.10;83.20;;;;;;5070450;28;20492;-73
2023/04/17 06:22:17;;;;;;;15.17;13.03;;;14.10;83.20;;;;;;5064841;28;20513;-73
2023/04/17 06:24:44;;;;;;;14.03;12.53;;;14.10;83.30;;;;;;5068752;28;20566;-73
2023/04/17 06:27:11;;;;;;;16.40;13.10;;;14.20;83.40;;;;;;5066079;28;20458;-71
2023/04/17 06:29:37;;;;;;;14.00;11.80;;;14.20;83.50;;;;;;5071611;28;21042;-72
2023/04/17 06:32:05;;;;;;;14.93;12.47;;;14.20;83.30;;;;;;5067248;28;20454;-73
2023/04/17 06:34:33;;;;;;;15.93;12.17;;;14.20;83.00;;;;;;5057503;28;20817;-72
2023/04/17 06:37:00;;;;;;;16.00;13.10;;;14.30;83.10;;;;;;5072182;28;20447;-72
2023/04/17 06:39:27;;;;;;;16.67;13.40;;;14.30;83.10;;;;;;5072293;28;20454;-72
2023/04/17 06:41:55;;;;;;;14.87;12.27;;;14.30;83.10;;;;;;5067513;28;20538;-72
2023/04/17 06:44:21;;;;;;;17.60;13.60;;;14.30;83.00;;;;;;5046712;28;20858;-72
2023/04/17 06:46:52;;;;;;;17.03;13.50;;;14.40;83.20;;;;;;5050635;28;20548;-73
2023/04/17 06:49:20;;;;;;;15.90;13.23;;;14.40;83.00;;;;;;5050580;28;20448;-72
2023/04/17 06:51:48;;;;;;;14.20;12.20;;;14.40;82.70;;;;;;5061713;28;20469;-72
2023/04/17 06:54:15;;;;;;;19.23;13.13;;;14.40;82.60;;;;;;5070405;28;20501;-72
2023/04/17 06:56:42;;;;;;;15.17;12.63;;;14.40;82.50;;;;;;5046880;28;20466;-72
2023/04/17 06:59:09;;;;;;;14.77;11.90;;;14.50;82.90;;;;;;5051947;28;20800;-73
2023/04/17 07:01:39;;;;;;;16.97;13.70;;;14.50;82.90;;;;;;5056206;28;21146;-73
2023/04/17 07:04:07;;;;;;;16.23;13.50;;;14.50;83.20;;;;;;5065621;28;20614;-73
2023/04/17 07:06:35;;;;;;;16.10;13.77;;;14.50;82.90;;;;;;5055731;28;20464;-70
2023/04/17 07:09:03;;;;;;;13.10;11.70;;;14.50;82.90;;;;;;5068394;28;20517;-72
2023/04/17 07:11:30;;;;;;;14.17;12.50;;;14.60;82.80;;;;;;5070277;28;20554;-73
2023/04/17 07:13:57;;;;;;;15.10;12.80;;;14.60;82.90;;;;;;5065033;28;20539;-71
2023/04/17 07:16:24;;;;;;;17.13;14.30;;;14.60;83.00;;;;;;5063239;28;20461;-72
2023/04/17 07:18:52;;;;;;;15.73;13.20;;;14.70;83.00;;;;;;5069848;28;20479;-72
2023/04/17 07:21:19;;;;;;;16.23;13.33;;;14.70;82.90;;;;;;5071103;28;20478;-71
2023/04/17 07:23:46;;;;;;;15.27;13.57;;;14.80;83.00;;;;;;5067417;28;20513;-72
2023/04/17 07:26:14;;;;;;;17.40;13.97;;;14.90;83.10;;;;;;5071209;28;20534;-70
2023/04/17 07:28:41;;;;;;;18.33;13.47;;;15.00;83.20;;;;;;5068902;28;20534;-71
2023/04/17 07:31:08;;;;;;;15.50;13.57;;;15.00;82.80;;;;;;5054536;28;20451;-71
2023/04/17 07:33:35;;;;;;;15.07;13.00;;;15.10;82.60;;;;;;5070615;28;20450;-70
2023/04/17 07:36:03;;;;;;;15.57;13.33;;;15.10;82.40;;;;;;5069858;28;20992;-72
2023/04/17 07:38:31;;;;;;;17.10;14.20;;;15.20;82.50;;;;;;5051778;28;21113;-70
2023/04/17 07:40:58;;;;;;;16.30;13.40;;;15.20;82.70;;;;;;5049899;28;20912;-71
2023/04/17 07:43:27;;;;;;;14.37;12.73;;;15.30;82.60;;;;;;5060444;28;20466;-70
2023/04/17 07:45:54;;;;;;;18.23;12.77;;;15.30;82.60;;;;;;5070091;28;20533;-70
2023/04/17 07:48:22;;;;;;;16.13;12.80;;;15.40;82.70;;;;;;5069224;28;20479;-70
2023/04/17 07:50:49;;;;;;;16.67;14.23;;;15.50;82.40;;;;;;5057975;28;20444;-70
2023/04/17 07:53:16;;;;;;;17.30;14.60;;;15.50;82.10;;;;;;5071232;28;20450;-70
2023/04/17 07:55:43;;;;;;;14.03;12.53;;;15.60;82.20;;;;;;5060223;28;20811;-70
2023/04/17 07:58:10;;;;;;;15.23;13.17;;;15.60;81.90;;;;;;5060370;28;20507;-70
2023/04/17 08:00:38;;;;;;;14.43;12.93;;;15.70;82.00;;;;;;5069880;28;20447;-71
2023/04/17 08:03:06;;;;;;;12.30;11.00;;;15.70;82.10;;;;;;5068269;28;20824;-70
2023/04/17 08:05:33;;;;;;;14.53;11.87;;;15.80;81.90;;;;;;5067690;28;20483;-70
2023/04/17 08:08:00;;;;;;;12.97;11.67;;;15.80;81.20;;;;;;5069662;28;20443;-70
2023/04/17 08:10:27;;;;;;;12.87;11.50;;;15.80;80.60;;;;;;5069874;28;20474;-70
2023/04/17 08:12:54;;;;;;;11.80;10.37;;;15.80;80.40;;;;;;5069350;28;20451;-71
2023/04/17 08:15:21;;;;;;;13.07;11.03;;;15.80;80.30;;;;;;5083029;28;20448;-69
2023/04/17 08:17:49;;;;;;;12.03;10.77;;;15.80;80.50;;;;;;5089806;28;21086;-70
2023/04/17 08:20:17;;;;;;;12.77;10.70;;;15.70;80.30;;;;;;5089808;28;21013;-70
2023/04/17 08:22:46;;;;;;;11.87;10.60;;;15.80;80.10;;;;;;5082927;28;20803;-70
2023/04/17 08:25:13;;;;;;;12.27;10.70;;;15.70;79.90;;;;;;5069236;28;20982;-70
2023/04/17 08:27:41;;;;;;;12.20;10.23;;;15.80;80.10;;;;;;5069351;28;20447;-70
2023/04/17 08:30:11;;;;;;;11.37;9.90;;;15.80;79.70;;;;;;5069187;28;20534;-70
2023/04/17 08:32:39;;;;;;;12.57;10.00;;;15.80;80.10;;;;;;5069461;28;20451;-70
2023/04/17 08:35:10;;;;;;;11.53;10.30;;;15.80;79.40;;;;;;5069583;28;20516;-70
2023/04/17 08:37:37;;;;;;;11.13;9.93;;;15.90;79.10;;;;;;5069710;28;20558;-70
2023/04/17 08:40:05;;;;;;;12.00;10.40;;;15.90;78.80;;;;;;5069239;28;20969;-70
2023/04/17 08:42:35;;;;;;;10.43;8.93;;;15.90;79.40;;;;;;5073339;28;20504;-70
2023/04/17 08:45:05;;;;;;;12.13;9.90;;;15.90;78.80;;;;;;5072592;28;21104;-70
2023/04/17 08:47:33;;;;;;;11.17;9.97;;;15.90;78.80;;;;;;5073004;28;20530;-70
2023/04/17 08:50:07;;;;;;;11.83;10.20;;;15.90;78.70;;;;;;5072936;28;20534;-70
2023/04/17 08:52:39;;;;;;;10.27;9.23;;;15.90;78.70;;;;;;5073045;28;20478;-70
2023/04/17 08:55:06;;;;;;;10.47;9.37;;;15.90;78.60;;;;;;5072692;28;20542;-70
2023/04/17 08:57:33;;;;;;;9.70;8.50;;;15.90;78.60;;;;;;5073004;28;20481;-70
2023/04/17 09:00:10;;;;;;;9.73;8.73;;;15.90;78.60;;;;;;5072410;28;20467;-70
2023/04/17 09:02:52;;;;;;;9.60;8.50;;;16.00;78.30;;;;;;5072958;28;20453;-70
2023/04/17 09:05:21;;;;;;;9.17;8.27;;;16.00;77.40;;;;;;5072581;28;21009;-70
2023/04/17 09:07:49;;;;;;;9.03;8.13;;;16.00;77.70;;;;;;5072470;28;20475;-70
2023/04/17 09:10:17;;;;;;;9.30;8.37;;;16.00;77.50;;;;;;5072585;28;20447;-70
2023/04/17 09:12:59;;;;;;;8.60;7.63;;;16.10;77.10;;;;;;5072169;28;20469;-70
2023/04/17 09:15:27;;;;;;;8.47;7.53;;;16.00;76.80;;;;;;5072348;28;20451;-70
2023/04/17 09:17:54;;;;;;;8.87;7.97;;;16.10;77.10;;;;;;5072874;28;20570;-70
2023/04/17 09:20:20;;;;;;;8.70;7.80;;;16.10;76.60;;;;;;5072527;28;20530;-70
2023/04/17 09:22:58;;;;;;;8.53;7.57;;;16.10;76.20;;;;;;5073191;28;20483;-71
2023/04/17 09:25:26;;;;;;;9.67;8.20;;;16.20;76.20;;;;;;5073130;28;20578;-71
2023/04/17 09:27:54;;;;;;;8.97;7.27;;;16.20;76.30;;;;;;5072973;28;21184;-70
2023/04/17 09:30:22;;;;;;;8.93;8.03;;;16.20;76.00;;;;;;5073336;28;20478;-70
2023/04/17 09:32:49;;;;;;;8.40;7.23;;;16.20;75.80;;;;;;5073322;28;20455;-70
2023/04/17 09:35:25;;;;;;;8.10;7.30;;;16.20;76.20;;;;;;5073214;28;20530;-70
2023/04/17 09:37:55;;;;;;;9.77;6.63;;;16.30;75.40;;;;;;5073403;28;20450;-70
2023/04/17 09:40:23;;;;;;;7.37;6.63;;;16.30;74.40;;;;;;5073310;28;20446;-70
2023/04/17 09:42:56;;;;;;;6.83;6.13;;;16.40;75.80;;;;;;5072667;28;20475;-70
2023/04/17 09:45:23;;;;;;;6.83;6.03;;;16.40;75.50;;;;;;5073030;28;20494;-70
2023/04/17 09:47:51;;;;;;;8.63;6.47;;;16.50;75.20;;;;;;5072999;28;20539;-70
2023/04/17 09:50:21;;;;;;;6.80;6.20;;;16.50;73.90;;;;;;5072859;28;20471;-70
2023/04/17 09:52:50;;;;;;;6.23;5.63;;;16.60;74.60;;;;;;5072114;28;20446;-70
2023/04/17 09:55:21;;;;;;;6.13;5.53;;;16.70;75.00;;;;;;5072582;28;20467;-70
2023/04/17 09:57:50;;;;;;;6.20;5.60;;;16.80;73.70;;;;;;5072570;28;20923;-70
2023/04/17 10:00:19;;;;;;;6.27;5.67;;;16.90;73.70;;;;;;5073786;28;20458;-70
2023/04/17 10:02:48;;;;;;;6.63;6.00;;;16.90;73.80;;;;;;5074367;28;20564;-70
2023/04/17 10:05:15;;;;;;;6.13;5.53;;;17.00;74.30;;;;;;5073323;28;20485;-70
2023/04/17 10:07:42;;;;;;;7.80;6.53;;;17.10;74.10;;;;;;5076153;28;20447;-70
2023/04/17 10:10:10;;;;;;;6.47;5.83;;;17.10;72.60;;;;;;5076701;28;20436;-71
2023/04/17 10:12:40;;;;;;;6.33;5.73;;;17.10;72.50;;;;;;5080370;28;20459;-70
2023/04/17 10:15:09;;;;;;;6.60;5.83;;;17.20;72.40;;;;;;5071965;28;20471;-70
2023/04/17 10:17:36;;;;;;;6.37;5.77;;;17.20;71.70;;;;;;5072066;28;20448;-69
2023/04/17 10:20:37;;;;;;;6.77;6.07;;;17.20;71.70;;;;;;5073450;28;20522;-70
2023/04/17 10:23:32;;;;;;;5.03;4.53;;;17.20;71.10;;;;;;5071916;28;20447;-70
2023/04/17 10:26:42;;;;;;;6.53;5.00;;;17.30;71.20;;;;;;5024384;28;20519;-70
2023/04/17 10:29:11;;;;;;;5.77;5.27;;;17.30;70.80;;;;;;5071840;28;20454;-70
2023/04/17 10:32:16;;;;;;;7.07;5.80;;;17.30;70.60;;;;;;5074397;28;20538;-69
2023/04/17 10:34:42;;;;;;;6.17;5.57;;;17.40;70.50;;;;;;4990394;28;20471;-69
2023/04/17 10:37:14;;;;;;;5.87;5.27;;;17.40;71.00;;;;;;5058095;28;20455;-70
2023/04/17 10:39:53;;;;;;;6.27;5.67;;;17.40;70.60;;;;;;5072220;28;20493;-70
2023/04/17 10:42:20;;;;;;;5.70;5.20;;;17.40;70.10;;;;;;5072088;28;20447;-69
2023/04/17 10:44:49;;;;;;;6.53;5.80;;;17.30;70.50;;;;;;5071549;28;20521;-69
2023/04/17 10:47:20;;;;;;;6.27;5.33;;;17.30;70.70;;;;;;5071966;28;20868;-70
2023/04/17 10:49:51;;;;;;;6.17;5.57;;;17.30;71.30;;;;;;5071956;28;20443;-70
2023/04/17 10:52:43;;;;;;;5.43;4.93;;;17.30;70.70;;;;;;5069320;28;20455;-70
2023/04/17 10:55:14;;;;;;;5.63;5.13;;;17.30;70.10;;;;;;5066186;28;20479;-70
2023/04/17 10:57:56;;;;;;;6.00;5.13;;;17.30;70.50;;;;;;5072455;28;20789;-68
2023/04/17 11:00:32;;;;;;;5.80;4.90;;;17.30;70.50;;;;;;5063259;28;20797;-69
2023/04/17 11:03:00;;;;;;;4.83;4.43;;;17.30;70.20;;;;;;5070637;28;20807;-69
2023/04/17 11:05:26;;;;;;;5.13;4.63;;;17.30;69.90;;;;;;5070773;28;20515;-69
2023/04/17 11:07:53;;;;;;;5.17;4.67;;;17.30;69.40;;;;;;5068218;28;20444;-69
2023/04/17 11:10:21;;;;;;;6.20;4.30;;;17.30;69.40;;;;;;5055704;28;20456;-69
2023/04/17 11:12:49;;;;;;;4.73;4.30;;;17.40;69.80;;;;;;5071541;28;20947;-69
2023/04/17 11:15:16;;;;;;;4.70;4.30;;;17.40;69.70;;;;;;5071840;28;20443;-69
2023/04/17 11:17:48;;;;;;;4.77;4.33;;;17.40;69.50;;;;;;5071860;28;20901;-69
2023/04/17 11:20:20;;;;;;;5.00;4.20;;;17.30;68.50;;;;;;5065615;28;20456;-69
2023/04/17 11:22:47;;;;;;;4.83;4.37;;;17.30;68.30;;;;;;5064636;28;20452;-70
2023/04/17 11:25:22;;;;;;;5.87;4.40;;;17.20;68.20;;;;;;5069518;28;20489;-69
2023/04/17 11:27:55;;;;;;;4.80;4.30;;;17.20;68.60;;;;;;5072075;28;20533;-70
2023/04/17 11:30:27;;;;;;;4.53;4.13;;;17.20;68.60;;;;;;5071809;28;20555;-69
2023/04/17 11:32:58;;;;;;;6.73;5.40;;;17.20;68.50;;;;;;5072113;28;20447;-70
2023/04/17 11:35:28;;;;;;;6.40;5.20;;;17.20;68.20;;;;;;5070942;28;20818;-69
2023/04/17 11:38:12;;;;;;;4.33;3.93;;;17.20;68.10;;;;;;5070224;28;20455;-69
2023/04/17 11:40:46;;;;;;;3.73;3.20;;;17.20;67.80;;;;;;5058886;28;20459;-69
2023/04/17 11:43:14;;;;;;;4.43;4.00;;;17.20;68.10;;;;;;5056585;28;20506;-69
2023/04/17 11:45:42;;;;;;;4.10;3.70;;;17.20;68.40;;;;;;5071238;28;20479;-69
2023/04/17 11:48:12;;;;;;;4.03;3.63;;;17.30;68.20;;;;;;5061673;28;20494;-69
2023/04/17 11:50:40;;;;;;;4.27;3.87;;;17.30;68.20;;;;;;5053626;28;20464;-69
2023/04/17 11:53:07;;;;;;;5.67;4.17;;;17.40;68.00;;;;;;5064845;28;20450;-69
2023/04/17 11:55:34;;;;;;;4.00;3.67;;;17.40;68.60;;;;;;5071211;28;20479;-69
2023/04/17 11:58:04;;;;;;;4.00;3.53;;;17.50;68.70;;;;;;5070655;28;20531;-69
2023/04/17 12:00:31;;;;;;;3.90;3.60;;;17.60;68.80;;;;;;5054285;28;20483;-69
2023/04/17 12:02:59;;;;;;;4.10;3.70;;;17.60;68.10;;;;;;5070024;28;20947;-69
2023/04/17 12:05:28;;;;;;;3.73;3.43;;;17.70;66.80;;;;;;5070780;28;20482;-69
2023/04/17 12:08:00;;;;;;;4.40;4.00;;;17.80;66.60;;;;;;5066617;28;20946;-70
2023/04/17 12:10:39;;;;;;;3.90;3.50;;;17.80;66.30;;;;;;5052523;28;20447;-69
2023/04/17 12:13:06;;;;;;;3.93;3.53;;;17.90;65.90;;;;;;5060400;28;20485;-69
2023/04/17 12:15:34;;;;;;;4.13;3.73;;;17.90;65.30;;;;;;5052315;28;20455;-70
2023/04/17 12:18:04;;;;;;;3.50;3.20;;;17.90;65.00;;;;;;5060302;28;20453;-69
2023/04/17 12:20:33;;;;;;;3.33;3.03;;;17.90;64.90;;;;;;5075434;28;20447;-69
2023/04/17 12:23:00;;;;;;;3.67;3.37;;;17.90;64.60;;;;;;5074930;28;20468;-69
2023/04/17 12:25:27;;;;;;;3.27;2.97;;;17.90;64.50;;;;;;5074805;28;20574;-70
2023/04/17 12:27:55;;;;;;;3.50;3.00;;;17.80;64.70;;;;;;5075316;28;20449;-69
2023/04/17 12:30:23;;;;;;;3.23;2.93;;;17.90;64.70;;;;;;5074959;28;20455;-69
2023/04/17 12:32:51;;;;;;;3.20;2.90;;;17.90;63.30;;;;;;5039631;28;20804;-69
2023/04/17 12:35:18;;;;;;;2.90;2.60;;;18.00;63.20;;;;;;5064883;28;20432;-69
2023/04/17 12:37:49;;;;;;;3.23;2.90;;;18.00;63.00;;;;;;5054316;28;20987;-69
2023/04/17 12:40:17;;;;;;;3.20;2.90;;;18.00;63.00;;;;;;5055072;28;21029;-69